sensor_id;sensor_type;location;lat;lon;timestamp;P1;durP1;ratioP1;P2;durP2;ratioP2
12412;SDS011;13877;18.896;-99.222;2022-11-20T00:01:26;19.50;;;10.65;;
12412;SDS011;13877;18.896;-99.222;2022-11-20T00:03:54;19.48;;;10.18;;
12412;SDS011;13877;18.896;-99.222;2022-11-20T00:06:23;24.02;;;11.40;;
12412;SDS011;13877;18.896;-99.222;2022-11-20T00:08:51;18.88;;;11.23;;
12412;SDS011;13877;18.896;-99.222;2022-11-20T00:11:22;23.75;;;10.30;;
12412;SDS011;13877;18.896;-99.222;2022-11-20T00:13:53;29.15;;;11.95;;
12412;SDS011;13877;18.896;-99.222;2022-11-20T00:18:50;27.23;;;12.95;;
12412;SDS011;13877;18.896;-99.222;2022-11-20T00:21:19;27.17;;;13.90;;
12412;SDS011;13877;18.896;-99.222;2022-11-20T00:23:51;31.73;;;13.23;;
12412;SDS011;13877;18.896;-99.222;2022-11-20T00:26:20;30.77;;;13.15;;
12412;SDS011;13877;18.896;-99.222;2022-11-20T00:28:51;24.13;;;11.77;;
12412;SDS011;13877;18.896;-99.222;2022-11-20T00:31:19;26.48;;;11.90;;
12412;SDS011;13877;18.896;-99.222;2022-11-20T00:33:47;31.27;;;11.27;;
12412;SDS011;13877;18.896;-99.222;2022-11-20T00:36:16;28.13;;;12.23;;
12412;SDS011;13877;18.896;-99.222;2022-11-20T00:38:44;24.88;;;11.50;;
12412;SDS011;13877;18.896;-99.222;2022-11-20T00:41:13;31.23;;;12.30;;
12412;SDS011;13877;18.896;-99.222;2022-11-20T00:43:41;40.42;;;14.00;;
12412;SDS011;13877;18.896;-99.222;2022-11-20T00:46:10;33.42;;;12.55;;
12412;SDS011;13877;18.896;-99.222;2022-11-20T00:48:43;24.73;;;12.18;;
12412;SDS011;13877;18.896;-99.222;2022-11-20T00:51:11;29.08;;;11.70;;
12412;SDS011;13877;18.896;-99.222;2022-11-20T00:53:40;22.15;;;12.55;;
12412;SDS011;13877;18.896;-99.222;2022-11-20T00:56:09;21.02;;;11.52;;
12412;SDS011;13877;18.896;-99.222;2022-11-20T00:58:39;21.40;;;12.70;;
12412;SDS011;13877;18.896;-99.222;2022-11-20T01:01:07;22.63;;;11.52;;
12412;SDS011;13877;18.896;-99.222;2022-11-20T01:03:38;18.48;;;12.15;;
12412;SDS011;13877;18.896;-99.222;2022-11-20T01:06:10;25.88;;;13.40;;
12412;SDS011;13877;18.896;-99.222;2022-11-20T01:08:45;35.00;;;13.77;;
12412;SDS011;13877;18.896;-99.222;2022-11-20T01:11:14;31.85;;;14.70;;
12412;SDS011;13877;18.896;-99.222;2022-11-20T01:13:44;28.95;;;14.73;;
12412;SDS011;13877;18.896;-99.222;2022-11-20T01:16:13;31.48;;;14.27;;
12412;SDS011;13877;18.896;-99.222;2022-11-20T01:18:43;30.48;;;15.55;;
12412;SDS011;13877;18.896;-99.222;2022-11-20T01:21:12;27.40;;;14.07;;
12412;SDS011;13877;18.896;-99.222;2022-11-20T01:23:44;24.70;;;13.38;;
12412;SDS011;13877;18.896;-99.222;2022-11-20T01:26:12;24.38;;;13.25;;
12412;SDS011;13877;18.896;-99.222;2022-11-20T01:28:46;27.17;;;13.40;;
12412;SDS011;13877;18.896;-99.222;2022-11-20T01:31:19;30.33;;;13.65;;
12412;SDS011;13877;18.896;-99.222;2022-11-20T01:33:48;26.63;;;13.02;;
12412;SDS011;13877;18.896;-99.222;2022-11-20T01:36:17;23.35;;;11.55;;
12412;SDS011;13877;18.896;-99.222;2022-11-20T01:38:45;21.60;;;12.70;;
12412;SDS011;13877;18.896;-99.222;2022-11-20T01:41:13;23.15;;;13.13;;
12412;SDS011;13877;18.896;-99.222;2022-11-20T01:44:02;30.08;;;13.23;;
12412;SDS011;13877;18.896;-99.222;2022-11-20T01:46:31;30.25;;;12.60;;
12412;SDS011;13877;18.896;-99.222;2022-11-20T01:49:44;25.20;;;13.02;;
12412;SDS011;13877;18.896;-99.222;2022-11-20T01:51:55;28.67;;;13.07;;
12412;SDS011;13877;18.896;-99.222;2022-11-20T01:54:32;28.42;;;12.82;;
12412;SDS011;13877;18.896;-99.222;2022-11-20T01:57:05;23.27;;;12.98;;
12412;SDS011;13877;18.896;-99.222;2022-11-20T01:59:40;29.38;;;12.73;;
12412;SDS011;13877;18.896;-99.222;2022-11-20T02:02:18;22.85;;;12.80;;
12412;SDS011;13877;18.896;-99.222;2022-11-20T02:04:47;25.13;;;11.55;;
12412;SDS011;13877;18.896;-99.222;2022-11-20T02:07:15;23.85;;;11.02;;
12412;SDS011;13877;18.896;-99.222;2022-11-20T02:09:42;21.23;;;11.23;;
12412;SDS011;13877;18.896;-99.222;2022-11-20T02:12:09;23.05;;;11.73;;
12412;SDS011;13877;18.896;-99.222;2022-11-20T02:14:57;25.83;;;11.23;;
12412;SDS011;13877;18.896;-99.222;2022-11-20T02:17:24;24.10;;;11.38;;
12412;SDS011;13877;18.896;-99.222;2022-11-20T02:19:52;16.30;;;10.13;;
12412;SDS011;13877;18.896;-99.222;2022-11-20T02:22:21;17.63;;;10.15;;
12412;SDS011;13877;18.896;-99.222;2022-11-20T02:27:28;18.63;;;10.25;;
12412;SDS011;13877;18.896;-99.222;2022-11-20T02:29:57;18.20;;;9.35;;
12412;SDS011;13877;18.896;-99.222;2022-11-20T02:32:30;16.58;;;8.70;;
12412;SDS011;13877;18.896;-99.222;2022-11-20T02:35:09;18.52;;;9.98;;
12412;SDS011;13877;18.896;-99.222;2022-11-20T02:37:50;15.90;;;9.13;;
12412;SDS011;13877;18.896;-99.222;2022-11-20T02:40:21;16.77;;;8.85;;
12412;SDS011;13877;18.896;-99.222;2022-11-20T02:42:51;14.70;;;7.50;;
12412;SDS011;13877;18.896;-99.222;2022-11-20T02:45:19;14.85;;;7.60;;
12412;SDS011;13877;18.896;-99.222;2022-11-20T02:47:45;14.88;;;8.48;;
12412;SDS011;13877;18.896;-99.222;2022-11-20T02:50:13;15.23;;;8.05;;
12412;SDS011;13877;18.896;-99.222;2022-11-20T02:52:39;14.68;;;7.57;;
12412;SDS011;13877;18.896;-99.222;2022-11-20T02:55:06;23.17;;;7.20;;
12412;SDS011;13877;18.896;-99.222;2022-11-20T02:57:33;14.18;;;7.68;;
12412;SDS011;13877;18.896;-99.222;2022-11-20T03:00:01;11.82;;;7.10;;
12412;SDS011;13877;18.896;-99.222;2022-11-20T03:02:32;10.15;;;6.72;;
12412;SDS011;13877;18.896;-99.222;2022-11-20T03:04:59;15.93;;;7.00;;
12412;SDS011;13877;18.896;-99.222;2022-11-20T03:07:26;14.75;;;6.53;;
12412;SDS011;13877;18.896;-99.222;2022-11-20T03:09:53;15.45;;;6.82;;
12412;SDS011;13877;18.896;-99.222;2022-11-20T03:12:20;10.82;;;6.15;;
12412;SDS011;13877;18.896;-99.222;2022-11-20T03:14:47;14.63;;;6.30;;
12412;SDS011;13877;18.896;-99.222;2022-11-20T03:17:15;12.27;;;6.15;;
12412;SDS011;13877;18.896;-99.222;2022-11-20T03:19:42;10.25;;;6.32;;
12412;SDS011;13877;18.896;-99.222;2022-11-20T03:22:09;11.40;;;6.22;;
12412;SDS011;13877;18.896;-99.222;2022-11-20T03:24:36;13.00;;;6.13;;
12412;SDS011;13877;18.896;-99.222;2022-11-20T03:27:02;11.77;;;6.10;;
12412;SDS011;13877;18.896;-99.222;2022-11-20T03:29:29;8.40;;;5.97;;
12412;SDS011;13877;18.896;-99.222;2022-11-20T03:31:56;12.07;;;6.32;;
12412;SDS011;13877;18.896;-99.222;2022-11-20T03:34:23;14.23;;;5.68;;
12412;SDS011;13877;18.896;-99.222;2022-11-20T03:36:50;12.40;;;5.82;;
12412;SDS011;13877;18.896;-99.222;2022-11-20T03:39:17;11.80;;;6.30;;
12412;SDS011;13877;18.896;-99.222;2022-11-20T03:41:43;16.58;;;5.90;;
12412;SDS011;13877;18.896;-99.222;2022-11-20T03:44:11;10.35;;;6.25;;
12412;SDS011;13877;18.896;-99.222;2022-11-20T03:46:38;12.05;;;6.38;;
12412;SDS011;13877;18.896;-99.222;2022-11-20T03:49:05;15.30;;;6.88;;
12412;SDS011;13877;18.896;-99.222;2022-11-20T03:51:33;11.52;;;5.78;;
12412;SDS011;13877;18.896;-99.222;2022-11-20T03:54:03;13.02;;;6.53;;
12412;SDS011;13877;18.896;-99.222;2022-11-20T03:56:33;15.60;;;7.10;;
12412;SDS011;13877;18.896;-99.222;2022-11-20T03:59:01;16.70;;;6.50;;
12412;SDS011;13877;18.896;-99.222;2022-11-20T04:01:30;10.77;;;6.53;;
12412;SDS011;13877;18.896;-99.222;2022-11-20T04:03:59;11.13;;;7.13;;
12412;SDS011;13877;18.896;-99.222;2022-11-20T04:06:26;13.15;;;7.00;;
12412;SDS011;13877;18.896;-99.222;2022-11-20T04:09:00;13.80;;;7.55;;
12412;SDS011;13877;18.896;-99.222;2022-11-20T04:11:29;11.75;;;6.55;;
12412;SDS011;13877;18.896;-99.222;2022-11-20T04:13:58;10.75;;;6.95;;
12412;SDS011;13877;18.896;-99.222;2022-11-20T04:16:27;14.43;;;6.97;;
12412;SDS011;13877;18.896;-99.222;2022-11-20T04:18:57;11.60;;;6.50;;
12412;SDS011;13877;18.896;-99.222;2022-11-20T04:21:26;15.25;;;7.10;;
12412;SDS011;13877;18.896;-99.222;2022-11-20T04:23:53;16.10;;;7.63;;
12412;SDS011;13877;18.896;-99.222;2022-11-20T04:26:22;17.70;;;7.00;;
12412;SDS011;13877;18.896;-99.222;2022-11-20T04:28:50;17.58;;;6.40;;
12412;SDS011;13877;18.896;-99.222;2022-11-20T04:31:18;11.10;;;7.38;;
12412;SDS011;13877;18.896;-99.222;2022-11-20T04:33:47;11.40;;;6.77;;
12412;SDS011;13877;18.896;-99.222;2022-11-20T04:36:15;14.02;;;6.70;;
12412;SDS011;13877;18.896;-99.222;2022-11-20T04:38:44;14.23;;;7.28;;
12412;SDS011;13877;18.896;-99.222;2022-11-20T04:41:14;12.15;;;7.25;;
12412;SDS011;13877;18.896;-99.222;2022-11-20T04:43:46;14.13;;;8.15;;
12412;SDS011;13877;18.896;-99.222;2022-11-20T04:46:19;13.63;;;7.05;;
12412;SDS011;13877;18.896;-99.222;2022-11-20T04:48:46;13.95;;;8.30;;
12412;SDS011;13877;18.896;-99.222;2022-11-20T04:51:14;22.20;;;7.50;;
12412;SDS011;13877;18.896;-99.222;2022-11-20T04:53:41;19.55;;;8.95;;
12412;SDS011;13877;18.896;-99.222;2022-11-20T04:56:08;22.38;;;8.85;;
12412;SDS011;13877;18.896;-99.222;2022-11-20T04:58:37;19.67;;;9.80;;
12412;SDS011;13877;18.896;-99.222;2022-11-20T05:01:06;16.73;;;9.32;;
12412;SDS011;13877;18.896;-99.222;2022-11-20T05:03:36;19.45;;;10.10;;
12412;SDS011;13877;18.896;-99.222;2022-11-20T05:06:04;22.65;;;10.80;;
12412;SDS011;13877;18.896;-99.222;2022-11-20T05:08:32;23.50;;;10.55;;
12412;SDS011;13877;18.896;-99.222;2022-11-20T05:11:00;17.67;;;9.95;;
12412;SDS011;13877;18.896;-99.222;2022-11-20T05:13:32;23.63;;;11.68;;
12412;SDS011;13877;18.896;-99.222;2022-11-20T05:16:05;22.30;;;10.43;;
12412;SDS011;13877;18.896;-99.222;2022-11-20T05:18:34;22.83;;;11.63;;
12412;SDS011;13877;18.896;-99.222;2022-11-20T05:21:01;19.13;;;10.80;;
12412;SDS011;13877;18.896;-99.222;2022-11-20T05:23:29;21.13;;;11.02;;
12412;SDS011;13877;18.896;-99.222;2022-11-20T05:25:57;23.27;;;11.75;;
12412;SDS011;13877;18.896;-99.222;2022-11-20T05:28:25;20.33;;;11.77;;
12412;SDS011;13877;18.896;-99.222;2022-11-20T05:30:52;30.83;;;11.10;;
12412;SDS011;13877;18.896;-99.222;2022-11-20T05:33:19;24.10;;;11.95;;
12412;SDS011;13877;18.896;-99.222;2022-11-20T05:35:46;21.02;;;10.77;;
12412;SDS011;13877;18.896;-99.222;2022-11-20T05:38:14;17.98;;;10.40;;
12412;SDS011;13877;18.896;-99.222;2022-11-20T05:40:41;27.73;;;12.25;;
12412;SDS011;13877;18.896;-99.222;2022-11-20T05:43:08;27.85;;;11.45;;
12412;SDS011;13877;18.896;-99.222;2022-11-20T05:45:35;20.00;;;11.40;;
12412;SDS011;13877;18.896;-99.222;2022-11-20T05:48:02;30.95;;;12.80;;
12412;SDS011;13877;18.896;-99.222;2022-11-20T05:50:29;20.02;;;11.15;;
12412;SDS011;13877;18.896;-99.222;2022-11-20T05:52:59;24.33;;;12.98;;
12412;SDS011;13877;18.896;-99.222;2022-11-20T05:55:27;21.80;;;11.23;;
12412;SDS011;13877;18.896;-99.222;2022-11-20T05:57:54;21.88;;;10.75;;
12412;SDS011;13877;18.896;-99.222;2022-11-20T06:00:21;28.13;;;11.50;;
12412;SDS011;13877;18.896;-99.222;2022-11-20T06:02:48;23.42;;;11.45;;
12412;SDS011;13877;18.896;-99.222;2022-11-20T06:05:15;21.08;;;11.75;;
12412;SDS011;13877;18.896;-99.222;2022-11-20T06:07:42;27.63;;;11.75;;
12412;SDS011;13877;18.896;-99.222;2022-11-20T06:10:09;24.23;;;11.13;;
12412;SDS011;13877;18.896;-99.222;2022-11-20T06:12:36;27.05;;;11.43;;
12412;SDS011;13877;18.896;-99.222;2022-11-20T06:15:04;18.23;;;11.10;;
12412;SDS011;13877;18.896;-99.222;2022-11-20T06:17:31;22.90;;;11.55;;
12412;SDS011;13877;18.896;-99.222;2022-11-20T06:19:58;22.67;;;11.68;;
12412;SDS011;13877;18.896;-99.222;2022-11-20T06:22:25;26.63;;;12.43;;
12412;SDS011;13877;18.896;-99.222;2022-11-20T06:24:52;24.33;;;12.30;;
12412;SDS011;13877;18.896;-99.222;2022-11-20T06:27:19;24.63;;;12.13;;
12412;SDS011;13877;18.896;-99.222;2022-11-20T06:29:46;25.48;;;10.57;;
12412;SDS011;13877;18.896;-99.222;2022-11-20T06:32:12;24.52;;;11.80;;
12412;SDS011;13877;18.896;-99.222;2022-11-20T06:34:40;22.20;;;11.55;;
12412;SDS011;13877;18.896;-99.222;2022-11-20T06:37:06;24.75;;;11.55;;
12412;SDS011;13877;18.896;-99.222;2022-11-20T06:39:33;23.30;;;11.85;;
12412;SDS011;13877;18.896;-99.222;2022-11-20T06:42:00;17.08;;;11.13;;
12412;SDS011;13877;18.896;-99.222;2022-11-20T06:44:27;33.33;;;11.75;;
12412;SDS011;13877;18.896;-99.222;2022-11-20T06:46:54;31.17;;;11.77;;
12412;SDS011;13877;18.896;-99.222;2022-11-20T06:49:21;30.25;;;11.10;;
12412;SDS011;13877;18.896;-99.222;2022-11-20T06:51:47;17.23;;;10.88;;
12412;SDS011;13877;18.896;-99.222;2022-11-20T06:54:14;17.48;;;9.90;;
12412;SDS011;13877;18.896;-99.222;2022-11-20T06:56:41;16.75;;;10.43;;
12412;SDS011;13877;18.896;-99.222;2022-11-20T06:59:08;19.70;;;10.20;;
12412;SDS011;13877;18.896;-99.222;2022-11-20T07:01:35;19.30;;;10.98;;
12412;SDS011;13877;18.896;-99.222;2022-11-20T07:04:02;18.48;;;10.57;;
12412;SDS011;13877;18.896;-99.222;2022-11-20T07:06:29;17.13;;;10.88;;
12412;SDS011;13877;18.896;-99.222;2022-11-20T07:08:56;24.42;;;9.85;;
12412;SDS011;13877;18.896;-99.222;2022-11-20T07:11:23;20.48;;;10.20;;
12412;SDS011;13877;18.896;-99.222;2022-11-20T07:13:50;19.17;;;10.40;;
12412;SDS011;13877;18.896;-99.222;2022-11-20T07:16:17;15.73;;;10.43;;
12412;SDS011;13877;18.896;-99.222;2022-11-20T07:18:44;19.85;;;10.30;;
12412;SDS011;13877;18.896;-99.222;2022-11-20T07:21:11;22.58;;;11.32;;
12412;SDS011;13877;18.896;-99.222;2022-11-20T07:23:38;24.95;;;11.77;;
12412;SDS011;13877;18.896;-99.222;2022-11-20T07:28:33;28.58;;;10.45;;
12412;SDS011;13877;18.896;-99.222;2022-11-20T07:31:00;20.42;;;11.43;;
12412;SDS011;13877;18.896;-99.222;2022-11-20T07:33:27;17.50;;;9.90;;
12412;SDS011;13877;18.896;-99.222;2022-11-20T07:35:54;18.08;;;9.73;;
12412;SDS011;13877;18.896;-99.222;2022-11-20T07:38:21;14.38;;;9.55;;
12412;SDS011;13877;18.896;-99.222;2022-11-20T07:40:48;16.67;;;9.85;;
12412;SDS011;13877;18.896;-99.222;2022-11-20T07:43:19;14.90;;;9.70;;
12412;SDS011;13877;18.896;-99.222;2022-11-20T07:45:46;17.55;;;10.32;;
12412;SDS011;13877;18.896;-99.222;2022-11-20T07:48:13;20.90;;;9.77;;
12412;SDS011;13877;18.896;-99.222;2022-11-20T07:50:39;15.95;;;9.77;;
12412;SDS011;13877;18.896;-99.222;2022-11-20T07:53:07;14.73;;;8.85;;
12412;SDS011;13877;18.896;-99.222;2022-11-20T07:55:33;19.80;;;9.43;;
12412;SDS011;13877;18.896;-99.222;2022-11-20T07:58:01;19.38;;;9.85;;
12412;SDS011;13877;18.896;-99.222;2022-11-20T08:00:27;15.20;;;9.52;;
12412;SDS011;13877;18.896;-99.222;2022-11-20T08:02:55;16.63;;;9.57;;
12412;SDS011;13877;18.896;-99.222;2022-11-20T08:05:22;19.80;;;10.13;;
12412;SDS011;13877;18.896;-99.222;2022-11-20T08:07:49;20.45;;;8.95;;
12412;SDS011;13877;18.896;-99.222;2022-11-20T08:10:16;17.38;;;10.13;;
12412;SDS011;13877;18.896;-99.222;2022-11-20T08:12:44;14.05;;;9.52;;
12412;SDS011;13877;18.896;-99.222;2022-11-20T08:15:31;17.67;;;9.55;;
12412;SDS011;13877;18.896;-99.222;2022-11-20T08:18:16;16.02;;;10.05;;
12412;SDS011;13877;18.896;-99.222;2022-11-20T08:20:43;16.52;;;8.98;;
12412;SDS011;13877;18.896;-99.222;2022-11-20T08:23:11;18.20;;;9.98;;
12412;SDS011;13877;18.896;-99.222;2022-11-20T08:25:38;18.35;;;9.90;;
12412;SDS011;13877;18.896;-99.222;2022-11-20T08:28:05;16.63;;;9.00;;
12412;SDS011;13877;18.896;-99.222;2022-11-20T08:30:35;16.65;;;9.07;;
12412;SDS011;13877;18.896;-99.222;2022-11-20T08:33:03;16.00;;;9.50;;
12412;SDS011;13877;18.896;-99.222;2022-11-20T08:35:35;15.73;;;8.52;;
12412;SDS011;13877;18.896;-99.222;2022-11-20T08:38:03;16.50;;;8.23;;
12412;SDS011;13877;18.896;-99.222;2022-11-20T08:40:31;15.48;;;8.75;;
12412;SDS011;13877;18.896;-99.222;2022-11-20T08:42:59;23.38;;;9.13;;
12412;SDS011;13877;18.896;-99.222;2022-11-20T08:45:26;13.73;;;8.75;;
12412;SDS011;13877;18.896;-99.222;2022-11-20T08:47:53;16.75;;;9.38;;
12412;SDS011;13877;18.896;-99.222;2022-11-20T08:50:25;11.82;;;8.23;;
12412;SDS011;13877;18.896;-99.222;2022-11-20T08:52:52;14.32;;;9.15;;
12412;SDS011;13877;18.896;-99.222;2022-11-20T08:55:19;13.32;;;8.30;;
12412;SDS011;13877;18.896;-99.222;2022-11-20T08:57:46;18.70;;;8.68;;
12412;SDS011;13877;18.896;-99.222;2022-11-20T09:00:13;17.40;;;9.20;;
12412;SDS011;13877;18.896;-99.222;2022-11-20T09:02:40;17.65;;;10.65;;
12412;SDS011;13877;18.896;-99.222;2022-11-20T09:05:08;18.52;;;9.93;;
12412;SDS011;13877;18.896;-99.222;2022-11-20T09:07:34;21.60;;;10.68;;
12412;SDS011;13877;18.896;-99.222;2022-11-20T09:10:01;23.88;;;11.02;;
12412;SDS011;13877;18.896;-99.222;2022-11-20T09:12:29;27.75;;;13.18;;
12412;SDS011;13877;18.896;-99.222;2022-11-20T09:14:56;24.55;;;11.52;;
12412;SDS011;13877;18.896;-99.222;2022-11-20T09:17:22;19.30;;;11.50;;
12412;SDS011;13877;18.896;-99.222;2022-11-20T09:19:49;20.52;;;11.00;;
12412;SDS011;13877;18.896;-99.222;2022-11-20T09:22:16;22.83;;;10.63;;
12412;SDS011;13877;18.896;-99.222;2022-11-20T09:24:43;21.83;;;9.77;;
12412;SDS011;13877;18.896;-99.222;2022-11-20T09:27:10;15.15;;;10.02;;
12412;SDS011;13877;18.896;-99.222;2022-11-20T09:29:36;20.67;;;9.50;;
12412;SDS011;13877;18.896;-99.222;2022-11-20T09:32:03;16.02;;;8.55;;
12412;SDS011;13877;18.896;-99.222;2022-11-20T09:34:30;17.13;;;8.25;;
12412;SDS011;13877;18.896;-99.222;2022-11-20T09:36:57;17.63;;;8.93;;
12412;SDS011;13877;18.896;-99.222;2022-11-20T09:39:24;18.63;;;8.60;;
12412;SDS011;13877;18.896;-99.222;2022-11-20T09:55:58;18.15;;;9.20;;
12412;SDS011;13877;18.896;-99.222;2022-11-20T10:01:09;18.00;;;9.73;;
12412;SDS011;13877;18.896;-99.222;2022-11-20T10:06:47;14.30;;;9.23;;
12412;SDS011;13877;18.896;-99.222;2022-11-20T10:09:34;15.68;;;9.75;;
12412;SDS011;13877;18.896;-99.222;2022-11-20T10:15:03;17.92;;;9.85;;
12412;SDS011;13877;18.896;-99.222;2022-11-20T10:17:44;15.43;;;9.18;;
12412;SDS011;13877;18.896;-99.222;2022-11-20T10:22:59;16.65;;;9.35;;
12412;SDS011;13877;18.896;-99.222;2022-11-20T10:28:23;23.92;;;9.38;;
12412;SDS011;13877;18.896;-99.222;2022-11-20T10:31:11;19.05;;;9.10;;
12412;SDS011;13877;18.896;-99.222;2022-11-20T10:36:26;17.00;;;9.38;;
12412;SDS011;13877;18.896;-99.222;2022-11-20T10:42:20;20.15;;;11.18;;
12412;SDS011;13877;18.896;-99.222;2022-11-20T10:48:34;18.88;;;9.98;;
12412;SDS011;13877;18.896;-99.222;2022-11-20T10:51:12;14.77;;;9.43;;
12412;SDS011;13877;18.896;-99.222;2022-11-20T10:56:35;20.42;;;11.40;;
12412;SDS011;13877;18.896;-99.222;2022-11-20T11:01:51;14.65;;;9.73;;
12412;SDS011;13877;18.896;-99.222;2022-11-20T11:04:39;21.02;;;10.20;;
12412;SDS011;13877;18.896;-99.222;2022-11-20T11:07:13;19.52;;;9.60;;
12412;SDS011;13877;18.896;-99.222;2022-11-20T11:09:42;17.92;;;9.27;;
12412;SDS011;13877;18.896;-99.222;2022-11-20T11:12:20;17.13;;;10.07;;
12412;SDS011;13877;18.896;-99.222;2022-11-20T11:14:51;17.08;;;9.52;;
12412;SDS011;13877;18.896;-99.222;2022-11-20T11:17:23;16.63;;;10.00;;
12412;SDS011;13877;18.896;-99.222;2022-11-20T11:22:55;19.88;;;9.57;;
12412;SDS011;13877;18.896;-99.222;2022-11-20T11:27:56;17.40;;;9.70;;
12412;SDS011;13877;18.896;-99.222;2022-11-20T11:30:25;19.27;;;11.10;;
12412;SDS011;13877;18.896;-99.222;2022-11-20T11:33:08;23.98;;;11.25;;
12412;SDS011;13877;18.896;-99.222;2022-11-20T11:35:47;27.98;;;11.63;;
12412;SDS011;13877;18.896;-99.222;2022-11-20T11:38:21;19.48;;;11.23;;
12412;SDS011;13877;18.896;-99.222;2022-11-20T11:41:03;24.65;;;11.02;;
12412;SDS011;13877;18.896;-99.222;2022-11-20T11:43:35;20.05;;;11.60;;
12412;SDS011;13877;18.896;-99.222;2022-11-20T11:46:26;23.55;;;11.85;;
12412;SDS011;13877;18.896;-99.222;2022-11-20T11:49:08;26.70;;;12.13;;
12412;SDS011;13877;18.896;-99.222;2022-11-20T11:57:33;24.23;;;12.20;;
12412;SDS011;13877;18.896;-99.222;2022-11-20T12:16:29;25.90;;;14.05;;
12412;SDS011;13877;18.896;-99.222;2022-11-20T12:19:00;21.77;;;13.15;;
12412;SDS011;13877;18.896;-99.222;2022-11-20T12:32:02;28.10;;;13.07;;
12412;SDS011;13877;18.896;-99.222;2022-11-20T12:34:40;25.98;;;12.93;;
12412;SDS011;13877;18.896;-99.222;2022-11-20T12:40:31;39.13;;;12.43;;
12412;SDS011;13877;18.896;-99.222;2022-11-20T12:57:44;25.70;;;12.07;;
12412;SDS011;13877;18.896;-99.222;2022-11-20T13:00:20;24.40;;;11.35;;
12412;SDS011;13877;18.896;-99.222;2022-11-20T13:03:05;29.45;;;11.18;;
12412;SDS011;13877;18.896;-99.222;2022-11-20T13:08:25;23.05;;;9.48;;
12412;SDS011;13877;18.896;-99.222;2022-11-20T13:11:14;14.95;;;8.75;;
12412;SDS011;13877;18.896;-99.222;2022-11-20T13:19:41;14.55;;;8.02;;
12412;SDS011;13877;18.896;-99.222;2022-11-20T13:22:28;13.98;;;8.23;;
12412;SDS011;13877;18.896;-99.222;2022-11-20T13:25:29;19.35;;;8.65;;
12412;SDS011;13877;18.896;-99.222;2022-11-20T13:28:03;12.85;;;8.30;;
12412;SDS011;13877;18.896;-99.222;2022-11-20T13:30:54;14.43;;;8.10;;
12412;SDS011;13877;18.896;-99.222;2022-11-20T13:33:55;25.70;;;8.60;;
12412;SDS011;13877;18.896;-99.222;2022-11-20T13:36:23;24.85;;;8.82;;
12412;SDS011;13877;18.896;-99.222;2022-11-20T13:38:52;12.90;;;8.43;;
12412;SDS011;13877;18.896;-99.222;2022-11-20T13:44:14;36.92;;;10.02;;
12412;SDS011;13877;18.896;-99.222;2022-11-20T13:46:50;28.23;;;9.52;;
12412;SDS011;13877;18.896;-99.222;2022-11-20T13:49:23;24.02;;;9.20;;
12412;SDS011;13877;18.896;-99.222;2022-11-20T13:55:05;21.55;;;9.25;;
12412;SDS011;13877;18.896;-99.222;2022-11-20T13:57:47;21.40;;;9.98;;
12412;SDS011;13877;18.896;-99.222;2022-11-20T14:00:33;32.90;;;10.38;;
12412;SDS011;13877;18.896;-99.222;2022-11-20T14:03:20;26.23;;;9.55;;
12412;SDS011;13877;18.896;-99.222;2022-11-20T14:05:50;15.90;;;9.23;;
12412;SDS011;13877;18.896;-99.222;2022-11-20T14:08:32;16.90;;;9.73;;
12412;SDS011;13877;18.896;-99.222;2022-11-20T14:11:14;28.13;;;10.80;;
12412;SDS011;13877;18.896;-99.222;2022-11-20T14:14:04;22.27;;;9.87;;
12412;SDS011;13877;18.896;-99.222;2022-11-20T14:16:46;19.30;;;10.05;;
12412;SDS011;13877;18.896;-99.222;2022-11-20T14:21:49;22.20;;;10.68;;
12412;SDS011;13877;18.896;-99.222;2022-11-20T14:24:34;25.98;;;9.75;;
12412;SDS011;13877;18.896;-99.222;2022-11-20T14:27:01;21.33;;;10.38;;
12412;SDS011;13877;18.896;-99.222;2022-11-20T14:29:29;23.58;;;9.63;;
12412;SDS011;13877;18.896;-99.222;2022-11-20T14:32:01;25.63;;;9.35;;
12412;SDS011;13877;18.896;-99.222;2022-11-20T14:34:30;15.43;;;8.43;;
12412;SDS011;13877;18.896;-99.222;2022-11-20T14:37:00;16.05;;;7.68;;
12412;SDS011;13877;18.896;-99.222;2022-11-20T14:39:36;13.05;;;7.22;;
12412;SDS011;13877;18.896;-99.222;2022-11-20T14:42:16;16.38;;;7.15;;
12412;SDS011;13877;18.896;-99.222;2022-11-20T14:44:50;11.63;;;6.45;;
12412;SDS011;13877;18.896;-99.222;2022-11-20T14:47:21;18.75;;;6.30;;
12412;SDS011;13877;18.896;-99.222;2022-11-20T14:49:50;16.37;;;5.73;;
12412;SDS011;13877;18.896;-99.222;2022-11-20T14:52:21;11.23;;;5.75;;
12412;SDS011;13877;18.896;-99.222;2022-11-20T14:59:49;14.32;;;4.70;;
12412;SDS011;13877;18.896;-99.222;2022-11-20T15:02:17;12.98;;;5.65;;
12412;SDS011;13877;18.896;-99.222;2022-11-20T15:04:56;11.30;;;4.60;;
12412;SDS011;13877;18.896;-99.222;2022-11-20T15:07:26;11.30;;;5.63;;
12412;SDS011;13877;18.896;-99.222;2022-11-20T15:10:05;7.55;;;4.28;;
12412;SDS011;13877;18.896;-99.222;2022-11-20T15:12:38;18.05;;;5.10;;
12412;SDS011;13877;18.896;-99.222;2022-11-20T15:15:15;14.90;;;6.35;;
12412;SDS011;13877;18.896;-99.222;2022-11-20T15:17:50;11.65;;;5.85;;
12412;SDS011;13877;18.896;-99.222;2022-11-20T15:20:17;12.93;;;4.10;;
12412;SDS011;13877;18.896;-99.222;2022-11-20T15:22:44;8.25;;;3.70;;
12412;SDS011;13877;18.896;-99.222;2022-11-20T15:25:15;7.72;;;4.35;;
12412;SDS011;13877;18.896;-99.222;2022-11-20T15:27:43;7.85;;;3.50;;
12412;SDS011;13877;18.896;-99.222;2022-11-20T15:30:20;5.65;;;3.10;;
12412;SDS011;13877;18.896;-99.222;2022-11-20T15:32:47;8.07;;;3.40;;
12412;SDS011;13877;18.896;-99.222;2022-11-20T15:35:15;5.78;;;3.30;;
12412;SDS011;13877;18.896;-99.222;2022-11-20T15:37:43;9.07;;;3.40;;
12412;SDS011;13877;18.896;-99.222;2022-11-20T15:40:10;5.60;;;3.42;;
12412;SDS011;13877;18.896;-99.222;2022-11-20T15:42:37;7.65;;;3.97;;
12412;SDS011;13877;18.896;-99.222;2022-11-20T15:45:24;6.50;;;3.92;;
12412;SDS011;13877;18.896;-99.222;2022-11-20T15:47:51;10.50;;;4.75;;
12412;SDS011;13877;18.896;-99.222;2022-11-20T15:50:18;8.73;;;4.20;;
12412;SDS011;13877;18.896;-99.222;2022-11-20T15:52:46;8.65;;;5.07;;
12412;SDS011;13877;18.896;-99.222;2022-11-20T15:55:13;7.38;;;3.90;;
12412;SDS011;13877;18.896;-99.222;2022-11-20T15:57:40;7.50;;;4.82;;
12412;SDS011;13877;18.896;-99.222;2022-11-20T16:00:07;8.73;;;4.40;;
12412;SDS011;13877;18.896;-99.222;2022-11-20T16:02:36;7.88;;;4.85;;
12412;SDS011;13877;18.896;-99.222;2022-11-20T16:05:03;7.20;;;4.82;;
12412;SDS011;13877;18.896;-99.222;2022-11-20T16:07:36;13.55;;;6.05;;
12412;SDS011;13877;18.896;-99.222;2022-11-20T16:10:02;21.00;;;6.75;;
12412;SDS011;13877;18.896;-99.222;2022-11-20T16:12:30;15.88;;;5.50;;
12412;SDS011;13877;18.896;-99.222;2022-11-20T16:15:15;11.60;;;6.45;;
12412;SDS011;13877;18.896;-99.222;2022-11-20T16:18:00;10.90;;;6.90;;
12412;SDS011;13877;18.896;-99.222;2022-11-20T16:20:27;10.73;;;5.63;;
12412;SDS011;13877;18.896;-99.222;2022-11-20T16:22:55;14.13;;;6.50;;
12412;SDS011;13877;18.896;-99.222;2022-11-20T16:25:22;12.40;;;6.68;;
12412;SDS011;13877;18.896;-99.222;2022-11-20T16:27:49;16.80;;;7.13;;
12412;SDS011;13877;18.896;-99.222;2022-11-20T16:30:16;17.48;;;7.55;;
12412;SDS011;13877;18.896;-99.222;2022-11-20T16:32:42;14.75;;;7.25;;